createdAt,value
2022-09-30T00:01:11.189Z,86.97
2022-09-30T00:03:38.774Z,86.79
2022-09-30T00:06:08.648Z,87.27
2022-09-30T00:08:37.694Z,86.40
2022-09-30T00:11:13.663Z,87.25
2022-09-30T00:13:41.288Z,86.02
2022-09-30T00:16:10.732Z,86.13
2022-09-30T00:18:38.828Z,84.99
2022-09-30T00:21:07.317Z,84.01
2022-09-30T00:23:37.958Z,83.96
2022-09-30T00:26:08.753Z,85.18
2022-09-30T00:28:36.864Z,85.48
2022-09-30T00:31:06.543Z,84.44
2022-09-30T00:33:34.919Z,83.53
2022-09-30T00:36:03.001Z,84.15
2022-09-30T00:38:30.413Z,85.69
2022-09-30T00:40:59.760Z,84.55
2022-09-30T00:43:51.573Z,84.72
2022-09-30T00:46:27.180Z,84.16
2022-09-30T00:48:55.835Z,84.32
2022-09-30T00:51:28.947Z,83.58
2022-09-30T00:54:00.765Z,83.64
2022-09-30T00:56:31.887Z,84.21
2022-09-30T00:59:05.340Z,84.53
2022-09-30T01:01:33.091Z,83.55
2022-09-30T01:04:03.972Z,87.89
2022-09-30T01:06:31.369Z,91.78
2022-09-30T01:08:58.967Z,95.87
2022-09-30T01:11:28.223Z,95.55
2022-09-30T01:13:58.162Z,91.91
2022-09-30T01:16:34.697Z,89.40
2022-09-30T01:19:59.074Z,87.02
2022-09-30T01:22:32.563Z,86.84
2022-09-30T01:25:04.363Z,85.10
2022-09-30T01:27:50.396Z,84.14
2022-09-30T01:30:45.467Z,83.71
2022-09-30T01:33:40.817Z,84.69
2022-09-30T01:36:14.464Z,86.34
2022-09-30T01:39:00.341Z,86.05
2022-09-30T01:41:32.982Z,84.34
2022-09-30T01:44:12.843Z,87.12
2022-09-30T01:46:48.501Z,87.63
2022-09-30T01:50:00.159Z,88.60
2022-09-30T01:52:50.508Z,88.90
2022-09-30T01:55:38.168Z,89.61
2022-09-30T01:58:16.213Z,86.93
2022-09-30T02:00:49.311Z,85.83
2022-09-30T02:03:25.672Z,87.34
2022-09-30T02:05:56.080Z,86.78
2022-09-30T02:08:29.069Z,88.57
2022-09-30T02:11:03.183Z,88.63
2022-09-30T02:13:37.874Z,87.11
2022-09-30T02:16:12.979Z,86.17
2022-09-30T02:18:47.992Z,85.12
2022-09-30T02:21:19.724Z,87.52
2022-09-30T02:23:48.022Z,87.82
2022-09-30T02:26:23.087Z,87.20
2022-09-30T02:28:57.690Z,87.93
2022-09-30T02:31:27.162Z,85.90
2022-09-30T02:34:02.006Z,85.97
2022-09-30T02:36:33.661Z,86.73
2022-09-30T02:39:06.079Z,87.20
2022-09-30T02:41:38.819Z,87.47
2022-09-30T02:44:06.714Z,90.46
2022-09-30T02:46:42.899Z,88.04
2022-09-30T02:49:32.550Z,87.16
2022-09-30T02:52:08.280Z,90.88
2022-09-30T02:54:51.094Z,87.74
2022-09-30T02:57:40.040Z,86.57
2022-09-30T03:00:12.686Z,85.90
2022-09-30T03:02:41.444Z,86.07
2022-09-30T03:05:10.047Z,85.95
2022-09-30T03:07:38.164Z,86.51
2022-09-30T03:10:15.581Z,85.21
2022-09-30T03:12:46.125Z,84.48
2022-09-30T03:15:16.432Z,84.76
2022-09-30T03:18:03.663Z,85.86
2022-09-30T03:20:39.257Z,85.00
2022-09-30T03:23:19.143Z,84.63
2022-09-30T03:25:58.994Z,84.77
2022-09-30T03:28:31.108Z,85.44
2022-09-30T03:31:28.293Z,85.97
2022-09-30T03:34:05.427Z,87.20
2022-09-30T03:36:40.060Z,84.96
2022-09-30T03:39:10.481Z,87.36
2022-09-30T03:41:46.600Z,86.48
2022-09-30T03:44:23.713Z,88.11
2022-09-30T03:46:57.409Z,88.76
2022-09-30T03:49:28.657Z,88.04
2022-09-30T03:51:58.818Z,89.06
2022-09-30T03:54:26.635Z,89.92
2022-09-30T03:56:54.368Z,89.64
2022-09-30T03:59:27.958Z,88.83
2022-09-30T04:01:57.486Z,87.78
2022-09-30T04:04:25.613Z,87.31
2022-09-30T04:06:53.031Z,86.17
2022-09-30T04:09:20.508Z,86.79
2022-09-30T04:11:48.299Z,86.67
2022-09-30T04:14:15.698Z,87.08
2022-09-30T04:16:43.219Z,86.71
2022-09-30T04:19:10.907Z,85.26
2022-09-30T04:21:38.249Z,87.08
2022-09-30T04:24:05.745Z,86.00
2022-09-30T04:26:33.411Z,85.59
2022-09-30T04:29:00.761Z,84.89
2022-09-30T04:31:28.326Z,84.56
2022-09-30T04:33:59.023Z,84.67
2022-09-30T04:36:26.428Z,84.23
2022-09-30T04:38:53.787Z,84.83
2022-09-30T04:41:21.895Z,84.35
2022-09-30T04:43:49.310Z,86.11
2022-09-30T04:46:18.100Z,84.14
2022-09-30T04:48:46.670Z,84.00
2022-09-30T04:51:15.388Z,85.96
2022-09-30T04:53:43.214Z,86.37
2022-09-30T04:56:11.353Z,85.63
2022-09-30T04:58:38.690Z,84.94
2022-09-30T05:01:08.199Z,85.04
2022-09-30T05:03:36.537Z,85.28
2022-09-30T05:06:05.297Z,85.58
2022-09-30T05:08:36.032Z,85.51
2022-09-30T05:11:08.471Z,84.60
2022-09-30T05:13:38.343Z,86.40
2022-09-30T05:16:07.361Z,87.91
2022-09-30T05:18:34.937Z,87.16
2022-09-30T05:21:03.818Z,86.51
2022-09-30T05:23:32.950Z,86.22
2022-09-30T05:26:01.418Z,86.65
2022-09-30T05:28:31.229Z,86.00
2022-09-30T05:31:06.183Z,84.70
2022-09-30T05:33:34.922Z,87.19
2022-09-30T05:36:07.195Z,86.57
2022-09-30T05:38:35.321Z,88.29
2022-09-30T05:41:13.573Z,86.99
2022-09-30T05:43:42.624Z,87.79
2022-09-30T05:46:10.203Z,87.68
2022-09-30T05:48:37.631Z,87.57
2022-09-30T05:51:05.271Z,87.48
2022-09-30T05:53:34.620Z,86.94
2022-09-30T05:56:02.259Z,87.48
2022-09-30T05:58:29.979Z,87.28
2022-09-30T06:01:00.469Z,86.96
2022-09-30T06:03:33.270Z,86.21
2022-09-30T06:06:00.999Z,85.75
2022-09-30T06:08:28.623Z,85.68
2022-09-30T06:10:56.431Z,84.31
2022-09-30T06:13:24.178Z,85.30
2022-09-30T06:15:59.285Z,85.82
2022-09-30T06:18:28.610Z,84.72
2022-09-30T06:20:56.885Z,84.75
2022-09-30T06:23:24.637Z,86.65
2022-09-30T06:25:53.984Z,86.88
2022-09-30T06:28:22.310Z,86.89
2022-09-30T06:30:50.032Z,87.85
2022-09-30T06:33:18.067Z,88.17
2022-09-30T06:35:47.445Z,86.94
2022-09-30T06:38:15.948Z,88.59
2022-09-30T06:40:44.586Z,89.96
2022-09-30T06:43:12.105Z,90.08
2022-09-30T06:45:40.177Z,86.16
2022-09-30T06:48:09.129Z,87.23
2022-09-30T06:50:39.250Z,86.53
2022-09-30T06:53:08.587Z,85.67
2022-09-30T06:55:39.558Z,86.60
2022-09-30T06:58:09.777Z,88.98
2022-09-30T07:00:37.758Z,90.77
2022-09-30T07:03:09.788Z,88.07
2022-09-30T07:05:37.687Z,85.13
2022-09-30T07:08:05.908Z,85.27
2022-09-30T07:10:33.406Z,85.09
2022-09-30T07:13:02.566Z,85.07
2022-09-30T07:15:29.895Z,85.37
2022-09-30T07:17:57.673Z,85.50
2022-09-30T07:20:25.551Z,84.70
2022-09-30T07:22:53.004Z,85.06
2022-09-30T07:25:20.509Z,84.10
2022-09-30T07:27:48.227Z,84.74
2022-09-30T07:30:25.788Z,84.32
2022-09-30T07:32:54.598Z,82.17
2022-09-30T07:35:21.998Z,83.27
2022-09-30T07:37:50.486Z,84.83
2022-09-30T07:40:18.102Z,86.55
2022-09-30T07:42:45.839Z,87.45
2022-09-30T07:45:18.904Z,87.50
2022-09-30T07:47:52.570Z,86.23
2022-09-30T07:50:21.222Z,87.14
2022-09-30T07:52:49.110Z,89.81
2022-09-30T07:55:16.489Z,94.76
2022-09-30T07:57:43.953Z,93.21
2022-09-30T08:00:40.641Z,90.65
2022-09-30T08:02:59.910Z,92.71
2022-09-30T08:05:27.467Z,91.58
2022-09-30T08:07:54.930Z,92.92
2022-09-30T08:10:22.593Z,96.41
2022-09-30T08:12:51.081Z,100.00
2022-09-30T08:15:19.829Z,100.00
2022-09-30T08:17:47.455Z,100.00
2022-09-30T08:20:18.802Z,100.00
2022-09-30T08:22:53.156Z,100.00
2022-09-30T08:25:22.698Z,100.00
2022-09-30T08:27:50.874Z,100.00
2022-09-30T08:30:18.321Z,100.00
2022-09-30T08:32:45.672Z,100.00
2022-09-30T08:35:13.300Z,100.00
2022-09-30T08:37:40.705Z,100.00
2022-09-30T08:40:18.997Z,100.00
2022-09-30T08:42:58.836Z,100.00
2022-09-30T08:45:44.180Z,100.00
2022-09-30T08:48:22.837Z,100.00
2022-09-30T08:51:15.089Z,100.00
2022-09-30T08:53:44.005Z,100.00
2022-09-30T08:56:23.323Z,100.00
2022-09-30T08:59:14.303Z,100.00
2022-09-30T09:01:45.830Z,100.00
2022-09-30T09:04:17.014Z,100.00
2022-09-30T09:07:19.969Z,100.00
2022-09-30T09:09:50.953Z,100.00
2022-09-30T09:12:24.200Z,100.00
2022-09-30T09:15:15.671Z,100.00
2022-09-30T09:18:23.138Z,100.00
2022-09-30T09:21:20.627Z,100.00
2022-09-30T09:23:49.961Z,100.00
2022-09-30T09:26:17.855Z,100.00
2022-09-30T09:29:06.994Z,100.00
2022-09-30T09:31:34.883Z,100.00
2022-09-30T09:34:10.235Z,100.00
2022-09-30T09:36:55.811Z,100.00
2022-09-30T09:39:45.117Z,100.00
2022-09-30T09:42:34.122Z,100.00
2022-09-30T09:45:22.963Z,100.00
2022-09-30T09:47:52.016Z,100.00
2022-09-30T09:50:26.150Z,100.00
2022-09-30T09:53:25.608Z,100.00
2022-09-30T09:56:00.203Z,100.00
2022-09-30T09:58:28.064Z,100.00
2022-09-30T10:01:12.137Z,100.00
2022-09-30T10:03:40.145Z,100.00
2022-09-30T10:06:10.323Z,100.00
2022-09-30T10:08:39.808Z,100.00
2022-09-30T10:11:18.519Z,100.00
2022-09-30T10:13:46.044Z,100.00
2022-09-30T10:16:35.422Z,100.00
2022-09-30T10:19:09.278Z,100.00
2022-09-30T10:21:37.299Z,100.00
2022-09-30T10:24:30.485Z,100.00
2022-09-30T10:26:58.150Z,100.00
2022-09-30T10:29:33.085Z,100.00
2022-09-30T10:32:02.604Z,100.00
2022-09-30T10:34:33.333Z,100.00
2022-09-30T10:37:20.023Z,100.00
2022-09-30T10:40:01.341Z,100.00
2022-09-30T10:42:31.781Z,100.00
2022-09-30T10:45:10.225Z,100.00
2022-09-30T10:47:44.647Z,99.49
2022-09-30T10:50:15.250Z,98.92
2022-09-30T10:53:01.143Z,98.50
2022-09-30T10:55:34.197Z,96.83
2022-09-30T10:58:36.131Z,95.00
2022-09-30T11:01:17.789Z,96.96
2022-09-30T11:04:01.641Z,94.48
2022-09-30T11:06:32.531Z,94.55
2022-09-30T11:09:14.810Z,95.91
2022-09-30T11:11:55.469Z,95.78
2022-09-30T11:15:03.299Z,94.53
2022-09-30T11:17:57.768Z,93.10
2022-09-30T11:20:29.571Z,93.61
2022-09-30T11:23:02.918Z,90.32
2022-09-30T11:25:59.810Z,89.59
2022-09-30T11:28:59.513Z,84.83
2022-09-30T11:31:37.191Z,85.15
2022-09-30T11:34:35.789Z,85.15
2022-09-30T11:37:41.000Z,89.75
2022-09-30T11:40:39.122Z,85.78
2022-09-30T11:43:22.117Z,81.50
2022-09-30T11:46:18.391Z,86.37
2022-09-30T11:48:52.888Z,85.84
2022-09-30T11:51:29.987Z,85.42
2022-09-30T11:54:23.052Z,87.21
2022-09-30T11:57:22.376Z,87.62
2022-09-30T12:00:16.607Z,87.97
2022-09-30T12:02:53.471Z,85.47
2022-09-30T12:05:26.486Z,86.76
2022-09-30T12:08:22.474Z,84.35
2022-09-30T12:10:54.284Z,86.21
2022-09-30T12:13:40.971Z,84.57
2022-09-30T12:16:16.241Z,85.50
2022-09-30T12:18:49.072Z,82.06
2022-09-30T12:21:26.750Z,79.38
2022-09-30T12:24:03.175Z,76.24
2022-09-30T12:26:31.216Z,73.13
2022-09-30T12:29:30.562Z,76.10
2022-09-30T12:32:13.205Z,73.20
2022-09-30T12:34:48.934Z,77.96
2022-09-30T12:37:47.354Z,74.14
2022-09-30T12:40:31.254Z,78.28
2022-09-30T12:43:36.405Z,79.78
2022-09-30T12:46:13.579Z,76.89
2022-09-30T12:48:48.425Z,81.50
2022-09-30T12:51:25.853Z,83.56
2022-09-30T12:53:59.248Z,80.92
2022-09-30T12:56:29.017Z,76.78
2022-09-30T12:58:57.995Z,76.69
2022-09-30T13:01:28.348Z,77.90
2022-09-30T13:04:02.173Z,77.59
2022-09-30T13:06:47.625Z,76.54
2022-09-30T13:09:22.337Z,81.99
2022-09-30T13:11:55.367Z,78.94
2022-09-30T13:14:40.238Z,80.55
2022-09-30T13:17:07.696Z,82.13
2022-09-30T13:19:42.687Z,79.29
2022-09-30T13:22:24.030Z,80.67
2022-09-30T13:25:00.666Z,83.24
2022-09-30T13:27:48.059Z,86.79
2022-09-30T13:30:18.727Z,86.65
2022-09-30T13:33:06.424Z,79.14
2022-09-30T13:35:35.088Z,82.81
2022-09-30T13:38:14.580Z,85.38
2022-09-30T13:41:02.387Z,80.29
2022-09-30T13:43:46.515Z,78.89
2022-09-30T13:46:17.158Z,76.62
2022-09-30T13:48:55.752Z,77.97
2022-09-30T13:51:26.031Z,77.73
2022-09-30T13:53:56.392Z,77.00
2022-09-30T13:56:35.310Z,77.98
2022-09-30T13:59:15.197Z,78.98
2022-09-30T14:02:28.164Z,75.21
2022-09-30T14:05:24.989Z,78.21
2022-09-30T14:08:21.418Z,82.15
2022-09-30T14:11:24.425Z,74.87
2022-09-30T14:14:39.606Z,73.34
2022-09-30T14:17:30.125Z,73.21
2022-09-30T14:20:30.012Z,74.83
2022-09-30T14:22:57.774Z,73.20
2022-09-30T14:25:25.520Z,79.53
2022-09-30T14:28:04.981Z,76.40
2022-09-30T14:30:39.359Z,72.15
2022-09-30T14:33:24.241Z,72.01
2022-09-30T14:35:54.724Z,75.47
2022-09-30T14:38:28.181Z,72.18
2022-09-30T14:41:06.258Z,71.62
2022-09-30T14:43:40.455Z,73.47
2022-09-30T14:46:35.280Z,70.42
2022-09-30T14:49:06.842Z,69.85
2022-09-30T14:51:37.943Z,75.32
2022-09-30T14:54:06.334Z,70.55
2022-09-30T14:56:36.172Z,68.61
2022-09-30T14:59:34.700Z,74.73
2022-09-30T15:02:05.216Z,72.45
2022-09-30T15:04:39.288Z,69.67
2022-09-30T15:07:10.515Z,69.32
2022-09-30T15:09:43.659Z,68.26
2022-09-30T15:12:22.563Z,69.19
2022-09-30T15:14:52.742Z,68.94
2022-09-30T15:17:21.694Z,69.51
2022-09-30T15:19:50.318Z,73.48
2022-09-30T15:22:18.473Z,70.02
2022-09-30T15:24:47.744Z,69.09
2022-09-30T15:27:21.225Z,69.62
2022-09-30T15:29:59.875Z,70.56
2022-09-30T15:32:30.056Z,72.05
2022-09-30T15:34:58.759Z,73.95
2022-09-30T15:37:33.851Z,78.51
2022-09-30T15:40:20.785Z,80.12
2022-09-30T15:43:01.297Z,79.53
2022-09-30T15:45:34.550Z,76.44
2022-09-30T15:48:28.101Z,75.40
2022-09-30T15:51:01.540Z,75.11
2022-09-30T15:53:46.707Z,77.00
2022-09-30T15:56:42.377Z,76.14
2022-09-30T15:59:11.224Z,73.00
2022-09-30T16:01:41.416Z,73.27
2022-09-30T16:04:15.496Z,70.91
2022-09-30T16:07:08.920Z,71.73
2022-09-30T16:09:38.663Z,72.42
2022-09-30T16:12:12.062Z,76.03
2022-09-30T16:14:48.421Z,75.09
2022-09-30T16:17:19.999Z,72.52
2022-09-30T16:19:58.705Z,74.31
2022-09-30T16:22:40.986Z,75.04
2022-09-30T16:25:28.885Z,75.37
2022-09-30T16:28:13.761Z,75.59
2022-09-30T16:30:42.673Z,78.19
2022-09-30T16:33:10.632Z,78.93
2022-09-30T16:35:38.318Z,79.40
2022-09-30T16:38:07.474Z,76.85
2022-09-30T16:40:39.150Z,75.85
2022-09-30T16:43:08.025Z,75.64
2022-09-30T16:45:35.699Z,74.86
2022-09-30T16:48:19.067Z,75.69
2022-09-30T16:50:59.228Z,76.65
2022-09-30T16:53:26.671Z,76.08
2022-09-30T16:55:54.424Z,76.70
2022-09-30T16:58:22.135Z,77.73
2022-09-30T17:00:49.690Z,76.05
2022-09-30T17:03:18.366Z,77.00
2022-09-30T17:05:46.791Z,78.57
2022-09-30T17:08:15.825Z,84.14
2022-09-30T17:10:45.396Z,86.20
2022-09-30T17:13:16.282Z,86.18
2022-09-30T17:15:50.803Z,83.16
2022-09-30T17:18:19.178Z,79.95
2022-09-30T17:20:52.997Z,79.63
2022-09-30T17:23:21.984Z,79.62
2022-09-30T17:25:49.999Z,85.58
2022-09-30T17:28:19.546Z,90.21
2022-09-30T17:30:48.256Z,90.80
2022-09-30T17:33:17.605Z,92.13
2022-09-30T17:35:45.094Z,91.93
2022-09-30T17:38:13.581Z,91.45
2022-09-30T17:41:00.395Z,89.53
2022-09-30T17:43:27.787Z,89.23
2022-09-30T17:45:59.027Z,88.38
2022-09-30T17:48:26.586Z,86.59
2022-09-30T17:50:55.570Z,88.27
2022-09-30T17:53:23.752Z,86.77
2022-09-30T17:56:12.860Z,86.90
2022-09-30T17:58:40.585Z,86.30
2022-09-30T18:01:11.415Z,87.08
2022-09-30T18:03:39.174Z,87.88
2022-09-30T18:06:07.234Z,85.04
2022-09-30T18:08:35.805Z,88.40
2022-09-30T18:11:03.449Z,84.30
2022-09-30T18:13:30.777Z,82.36
2022-09-30T18:16:01.917Z,84.34
2022-09-30T18:18:29.877Z,87.17
2022-09-30T18:20:57.284Z,87.20
2022-09-30T18:23:24.677Z,86.07
2022-09-30T18:25:54.371Z,86.83
2022-09-30T18:28:21.823Z,89.67
2022-09-30T18:30:49.367Z,90.39
2022-09-30T18:33:20.973Z,91.34
2022-09-30T18:35:48.815Z,92.28
2022-09-30T18:38:16.186Z,92.18
2022-09-30T18:40:45.734Z,90.59
2022-09-30T18:43:14.544Z,90.77
2022-09-30T18:45:43.653Z,91.51
2022-09-30T18:48:11.771Z,94.96
2022-09-30T18:50:39.643Z,94.53
2022-09-30T18:53:10.040Z,93.53
2022-09-30T18:55:38.514Z,83.91
2022-09-30T18:58:06.225Z,84.88
2022-09-30T19:00:33.708Z,92.23
2022-09-30T19:03:01.604Z,93.71
2022-09-30T19:05:29.319Z,95.04
2022-09-30T19:07:57.056Z,93.82
2022-09-30T19:10:26.326Z,94.50
2022-09-30T19:12:53.709Z,94.87
2022-09-30T19:15:26.680Z,94.01
2022-09-30T19:17:55.173Z,93.44
2022-09-30T19:20:23.345Z,94.53
2022-09-30T19:22:51.974Z,93.91
2022-09-30T19:25:19.894Z,94.45
2022-09-30T19:27:49.566Z,95.84
2022-09-30T19:30:17.061Z,97.69
2022-09-30T19:32:46.467Z,95.03
2022-09-30T19:35:14.144Z,88.83
2022-09-30T19:37:54.131Z,85.87
2022-09-30T19:40:27.889Z,83.23
2022-09-30T19:42:55.374Z,82.60
2022-09-30T19:45:25.683Z,78.22
2022-09-30T19:47:55.946Z,78.29
2022-09-30T19:50:23.385Z,86.79
2022-09-30T19:52:57.424Z,90.59
2022-09-30T19:55:26.096Z,93.23
2022-09-30T19:57:53.979Z,89.48
2022-09-30T20:00:24.830Z,88.25
2022-09-30T20:02:53.050Z,88.68
2022-09-30T20:05:20.685Z,88.63
2022-09-30T20:07:51.394Z,90.91
2022-09-30T20:10:19.600Z,92.26
2022-09-30T20:12:46.951Z,90.63
2022-09-30T20:15:32.785Z,92.16
2022-09-30T20:18:00.443Z,92.18
2022-09-30T20:20:37.231Z,91.96
2022-09-30T20:23:05.206Z,92.20
2022-09-30T20:25:34.730Z,91.69
2022-09-30T20:28:04.084Z,92.36
2022-09-30T20:30:32.503Z,92.72
2022-09-30T20:33:00.904Z,94.55
2022-09-30T20:35:28.747Z,94.20
2022-09-30T20:37:56.842Z,94.49
2022-09-30T20:40:24.207Z,94.16
2022-09-30T20:42:52.029Z,93.77
2022-09-30T20:45:19.780Z,92.94
2022-09-30T20:47:47.837Z,88.70
2022-09-30T20:50:35.114Z,86.64
2022-09-30T20:53:08.555Z,88.05
2022-09-30T20:55:43.374Z,90.55
2022-09-30T20:58:12.226Z,91.89
2022-09-30T21:00:40.998Z,90.99
2022-09-30T21:03:11.102Z,92.20
2022-09-30T21:05:38.686Z,95.18
2022-09-30T21:08:07.338Z,90.96
2022-09-30T21:10:37.169Z,90.21
2022-09-30T21:13:09.115Z,90.74
2022-09-30T21:15:37.627Z,91.78
2022-09-30T21:18:05.333Z,93.34
2022-09-30T21:20:32.837Z,95.70
2022-09-30T21:23:00.281Z,91.33
2022-09-30T21:25:27.893Z,88.43
2022-09-30T21:27:55.323Z,86.54
2022-09-30T21:30:23.189Z,84.65
2022-09-30T21:32:50.822Z,85.71
2022-09-30T21:35:18.408Z,87.21
2022-09-30T21:37:48.588Z,88.42
2022-09-30T21:40:16.220Z,88.83
2022-09-30T21:42:43.541Z,89.48
2022-09-30T21:45:11.216Z,86.48
2022-09-30T21:47:38.877Z,83.58
2022-09-30T21:50:06.841Z,81.33
2022-09-30T21:52:34.753Z,82.84
2022-09-30T21:55:03.063Z,83.50
2022-09-30T21:57:30.423Z,83.28
2022-09-30T21:59:57.968Z,81.99
2022-09-30T22:02:25.628Z,80.88
2022-09-30T22:04:53.255Z,88.54
2022-09-30T22:07:23.618Z,91.22
2022-09-30T22:09:51.014Z,90.83
2022-09-30T22:12:18.712Z,91.13
2022-09-30T22:14:46.165Z,89.30
2022-09-30T22:17:15.688Z,84.74
2022-09-30T22:19:43.363Z,82.19
2022-09-30T22:22:11.508Z,82.61
2022-09-30T22:24:38.899Z,81.73
2022-09-30T22:27:07.597Z,82.76
2022-09-30T22:29:35.522Z,85.15
2022-09-30T22:32:03.116Z,85.75
2022-09-30T22:34:49.479Z,86.60
2022-09-30T22:37:35.364Z,85.02
2022-09-30T22:40:03.090Z,87.27
2022-09-30T22:42:30.463Z,88.80
2022-09-30T22:44:57.829Z,87.61
2022-09-30T22:47:25.433Z,85.20
2022-09-30T22:49:52.892Z,83.41
2022-09-30T22:52:20.571Z,83.55
2022-09-30T22:54:48.184Z,83.80
2022-09-30T22:57:16.296Z,83.27
2022-09-30T22:59:44.659Z,83.04
2022-09-30T23:02:12.287Z,83.14
2022-09-30T23:04:39.669Z,83.34
2022-09-30T23:07:07.684Z,82.13
2022-09-30T23:09:35.428Z,82.91
2022-09-30T23:12:02.804Z,83.65
2022-09-30T23:14:30.122Z,82.39
2022-09-30T23:16:57.823Z,82.60
2022-09-30T23:19:25.350Z,82.88
2022-09-30T23:21:52.737Z,82.45
2022-09-30T23:24:20.472Z,82.51
2022-09-30T23:26:47.963Z,82.73
2022-09-30T23:29:15.853Z,83.18
2022-09-30T23:31:43.510Z,82.77
2022-09-30T23:34:11.074Z,83.20
2022-09-30T23:36:38.397Z,84.30
2022-09-30T23:39:18.216Z,84.13
2022-09-30T23:41:46.724Z,84.52
2022-09-30T23:44:17.879Z,84.37
2022-09-30T23:47:04.481Z,83.83
2022-09-30T23:49:34.945Z,83.03
2022-09-30T23:52:10.564Z,83.32
2022-09-30T23:54:41.607Z,82.96
2022-09-30T23:57:09.971Z,84.35
2022-09-30T23:59:37.930Z,84.38
